<?xml version="1.0" encoding="UTF-8" standalone="no" ?>
<gpx xmlns="http://www.topografix.com/GPX/1/1" xmlns:xsi="http://www.w3.org/2001/XMLSchema-instance" xsi:schemaLocation="http://www.topografix.com/GPX/1/1 http://www.topografix.com/GPX/1/1/gpx.xsd" version="1.1" creator="VisuGPX - https://www.visugpx.com">
  <metadata>
    <name>Abbaretz_MineGruellauVariante_23.1km</name>
    <desc><![CDATA[gnerando Idor: 6885808_8206575_8332675]]></desc>
  </metadata>
  <trk>
    <name><![CDATA[Abbaretz_MineGruellauVariante_23.1km-8332675]]></name>
    <extensions>
      <line xmlns="http://www.topografix.com/GPX/gpx_style/0/2">
        <color>0000FF</color>
        <width>4</width>
      </line>
    </extensions>
    <trkseg>
      <trkpt lat="47.55394" lon="-1.53223">
        <ele>68</ele>
        <time>2022-11-29T18:01:19Z</time>
      </trkpt>
      <trkpt lat="47.55401" lon="-1.53249">
        <ele>68</ele>
        <time>2022-11-29T18:01:44Z</time>
      </trkpt>
      <trkpt lat="47.55418" lon="-1.53261">
        <ele>67</ele>
        <time>2022-11-29T18:02:09Z</time>
      </trkpt>
      <trkpt lat="47.5543" lon="-1.53283">
        <ele>66</ele>
        <time>2022-11-29T18:02:35Z</time>
      </trkpt>
      <trkpt lat="47.55457" lon="-1.53321">
        <ele>65</ele>
        <time>2022-11-29T18:03:25Z</time>
      </trkpt>
      <trkpt lat="47.55474" lon="-1.53329">
        <ele>65</ele>
        <time>2022-11-29T18:03:48Z</time>
      </trkpt>
      <trkpt lat="47.55492" lon="-1.5332">
        <ele>64</ele>
        <time>2022-11-29T18:04:14Z</time>
      </trkpt>
      <trkpt lat="47.5551" lon="-1.53326">
        <ele>64</ele>
        <time>2022-11-29T18:04:38Z</time>
      </trkpt>
      <trkpt lat="47.55521" lon="-1.53347">
        <ele>64</ele>
        <time>2022-11-29T18:05:02Z</time>
      </trkpt>
      <trkpt lat="47.55517" lon="-1.53373">
        <ele>64</ele>
        <time>2022-11-29T18:05:26Z</time>
      </trkpt>
      <trkpt lat="47.55522" lon="-1.53399">
        <ele>64</ele>
        <time>2022-11-29T18:05:51Z</time>
      </trkpt>
      <trkpt lat="47.55535" lon="-1.53418">
        <ele>64</ele>
        <time>2022-11-29T18:06:15Z</time>
      </trkpt>
      <trkpt lat="47.55546" lon="-1.5344">
        <ele>63</ele>
        <time>2022-11-29T18:06:40Z</time>
      </trkpt>
      <trkpt lat="47.55549" lon="-1.53467">
        <ele>63</ele>
        <time>2022-11-29T18:07:04Z</time>
      </trkpt>
      <trkpt lat="47.55562" lon="-1.53486">
        <ele>63</ele>
        <time>2022-11-29T18:07:29Z</time>
      </trkpt>
      <trkpt lat="47.55569" lon="-1.53512">
        <ele>62</ele>
        <time>2022-11-29T18:07:54Z</time>
      </trkpt>
      <trkpt lat="47.55576" lon="-1.53567">
        <ele>61</ele>
        <time>2022-11-29T18:08:44Z</time>
      </trkpt>
      <trkpt lat="47.55589" lon="-1.53587">
        <ele>61</ele>
        <time>2022-11-29T18:09:09Z</time>
      </trkpt>
      <trkpt lat="47.55647" lon="-1.5366">
        <ele>61</ele>
        <time>2022-11-29T18:10:51Z</time>
      </trkpt>
      <trkpt lat="47.55663" lon="-1.53675">
        <ele>62</ele>
        <time>2022-11-29T18:11:16Z</time>
      </trkpt>
      <trkpt lat="47.55697" lon="-1.53696">
        <ele>62</ele>
        <time>2022-11-29T18:12:05Z</time>
      </trkpt>
      <trkpt lat="47.55711" lon="-1.53714">
        <ele>63</ele>
        <time>2022-11-29T18:12:30Z</time>
      </trkpt>
      <trkpt lat="47.55764" lon="-1.53738">
        <ele>62</ele>
        <time>2022-11-29T18:13:44Z</time>
      </trkpt>
      <trkpt lat="47.55773" lon="-1.53762">
        <ele>62</ele>
        <time>2022-11-29T18:14:09Z</time>
      </trkpt>
      <trkpt lat="47.5577" lon="-1.53817">
        <ele>60</ele>
        <time>2022-11-29T18:14:58Z</time>
      </trkpt>
      <trkpt lat="47.55771" lon="-1.53845">
        <ele>60</ele>
        <time>2022-11-29T18:15:24Z</time>
      </trkpt>
      <trkpt lat="47.5576" lon="-1.53867">
        <ele>61</ele>
        <time>2022-11-29T18:15:48Z</time>
      </trkpt>
      <trkpt lat="47.55754" lon="-1.53892">
        <ele>61</ele>
        <time>2022-11-29T18:16:12Z</time>
      </trkpt>
      <trkpt lat="47.55749" lon="-1.53918">
        <ele>62</ele>
        <time>2022-11-29T18:16:36Z</time>
      </trkpt>
      <trkpt lat="47.5575" lon="-1.53946">
        <ele>62</ele>
        <time>2022-11-29T18:17:02Z</time>
      </trkpt>
      <trkpt lat="47.55757" lon="-1.5397">
        <ele>63</ele>
        <time>2022-11-29T18:17:25Z</time>
      </trkpt>
      <trkpt lat="47.55772" lon="-1.53987">
        <ele>63</ele>
        <time>2022-11-29T18:17:50Z</time>
      </trkpt>
      <trkpt lat="47.55779" lon="-1.54016">
        <ele>63</ele>
        <time>2022-11-29T18:18:18Z</time>
      </trkpt>
      <trkpt lat="47.55778" lon="-1.54043">
        <ele>62</ele>
        <time>2022-11-29T18:18:43Z</time>
      </trkpt>
      <trkpt lat="47.55785" lon="-1.54068">
        <ele>61</ele>
        <time>2022-11-29T18:19:07Z</time>
      </trkpt>
      <trkpt lat="47.55808" lon="-1.5411">
        <ele>60</ele>
        <time>2022-11-29T18:19:56Z</time>
      </trkpt>
      <trkpt lat="47.55807" lon="-1.54137">
        <ele>59</ele>
        <time>2022-11-29T18:20:20Z</time>
      </trkpt>
      <trkpt lat="47.55815" lon="-1.54162">
        <ele>58</ele>
        <time>2022-11-29T18:20:45Z</time>
      </trkpt>
      <trkpt lat="47.5583" lon="-1.54179">
        <ele>57</ele>
        <time>2022-11-29T18:21:10Z</time>
      </trkpt>
      <trkpt lat="47.55848" lon="-1.54176">
        <ele>57</ele>
        <time>2022-11-29T18:21:34Z</time>
      </trkpt>
      <trkpt lat="47.55866" lon="-1.54181">
        <ele>57</ele>
        <time>2022-11-29T18:21:59Z</time>
      </trkpt>
      <trkpt lat="47.55884" lon="-1.5418">
        <ele>57</ele>
        <time>2022-11-29T18:22:23Z</time>
      </trkpt>
      <trkpt lat="47.55903" lon="-1.54183">
        <ele>57</ele>
        <time>2022-11-29T18:22:48Z</time>
      </trkpt>
      <trkpt lat="47.55917" lon="-1.54203">
        <ele>57</ele>
        <time>2022-11-29T18:23:14Z</time>
      </trkpt>
      <trkpt lat="47.55935" lon="-1.54208">
        <ele>59</ele>
        <time>2022-11-29T18:23:39Z</time>
      </trkpt>
      <trkpt lat="47.55971" lon="-1.54192">
        <ele>61</ele>
        <time>2022-11-29T18:24:29Z</time>
      </trkpt>
      <trkpt lat="47.55989" lon="-1.54188">
        <ele>62</ele>
        <time>2022-11-29T18:24:53Z</time>
      </trkpt>
      <trkpt lat="47.5598" lon="-1.54213">
        <ele>64</ele>
        <time>2022-11-29T18:25:19Z</time>
      </trkpt>
      <trkpt lat="47.55964" lon="-1.54227">
        <ele>64</ele>
        <time>2022-11-29T18:25:43Z</time>
      </trkpt>
      <trkpt lat="47.55996" lon="-1.54255">
        <ele>70</ele>
        <time>2022-11-29T18:26:33Z</time>
      </trkpt>
      <trkpt lat="47.56014" lon="-1.54265">
        <ele>72</ele>
        <time>2022-11-29T18:26:59Z</time>
      </trkpt>
      <trkpt lat="47.5603" lon="-1.54279">
        <ele>74</ele>
        <time>2022-11-29T18:27:23Z</time>
      </trkpt>
      <trkpt lat="47.56047" lon="-1.54289">
        <ele>77</ele>
        <time>2022-11-29T18:27:48Z</time>
      </trkpt>
      <trkpt lat="47.56145" lon="-1.5437">
        <ele>84</ele>
        <time>2022-11-29T18:30:18Z</time>
      </trkpt>
      <trkpt lat="47.56113" lon="-1.54342">
        <ele>86</ele>
        <time>2022-11-29T18:31:07Z</time>
      </trkpt>
      <trkpt lat="47.56079" lon="-1.54319">
        <ele>85</ele>
        <time>2022-11-29T18:31:57Z</time>
      </trkpt>
      <trkpt lat="47.56031" lon="-1.54279">
        <ele>74</ele>
        <time>2022-11-29T18:33:11Z</time>
      </trkpt>
      <trkpt lat="47.55981" lon="-1.54247">
        <ele>68</ele>
        <time>2022-11-29T18:34:23Z</time>
      </trkpt>
      <trkpt lat="47.55963" lon="-1.54242">
        <ele>65</ele>
        <time>2022-11-29T18:34:48Z</time>
      </trkpt>
      <trkpt lat="47.5597" lon="-1.54216">
        <ele>63</ele>
        <time>2022-11-29T18:35:13Z</time>
      </trkpt>
      <trkpt lat="47.55986" lon="-1.54204">
        <ele>64</ele>
        <time>2022-11-29T18:35:37Z</time>
      </trkpt>
      <trkpt lat="47.55988" lon="-1.54177">
        <ele>61</ele>
        <time>2022-11-29T18:36:01Z</time>
      </trkpt>
      <trkpt lat="47.5597" lon="-1.54184">
        <ele>60</ele>
        <time>2022-11-29T18:36:26Z</time>
      </trkpt>
      <trkpt lat="47.55938" lon="-1.54212">
        <ele>60</ele>
        <time>2022-11-29T18:37:16Z</time>
      </trkpt>
      <trkpt lat="47.55924" lon="-1.54229">
        <ele>59</ele>
        <time>2022-11-29T18:37:40Z</time>
      </trkpt>
      <trkpt lat="47.55926" lon="-1.54256">
        <ele>60</ele>
        <time>2022-11-29T18:38:04Z</time>
      </trkpt>
      <trkpt lat="47.55933" lon="-1.54281">
        <ele>61</ele>
        <time>2022-11-29T18:38:29Z</time>
      </trkpt>
      <trkpt lat="47.55937" lon="-1.54308">
        <ele>62</ele>
        <time>2022-11-29T18:38:54Z</time>
      </trkpt>
      <trkpt lat="47.55936" lon="-1.54335">
        <ele>61</ele>
        <time>2022-11-29T18:39:18Z</time>
      </trkpt>
      <trkpt lat="47.5592" lon="-1.54385">
        <ele>59</ele>
        <time>2022-11-29T18:40:08Z</time>
      </trkpt>
      <trkpt lat="47.55915" lon="-1.54438">
        <ele>58</ele>
        <time>2022-11-29T18:40:56Z</time>
      </trkpt>
      <trkpt lat="47.55915" lon="-1.54493">
        <ele>57</ele>
        <time>2022-11-29T18:41:45Z</time>
      </trkpt>
      <trkpt lat="47.55908" lon="-1.54518">
        <ele>58</ele>
        <time>2022-11-29T18:42:10Z</time>
      </trkpt>
      <trkpt lat="47.5591" lon="-1.54546">
        <ele>58</ele>
        <time>2022-11-29T18:42:35Z</time>
      </trkpt>
      <trkpt lat="47.55906" lon="-1.54601">
        <ele>58</ele>
        <time>2022-11-29T18:43:25Z</time>
      </trkpt>
      <trkpt lat="47.55909" lon="-1.54628">
        <ele>57</ele>
        <time>2022-11-29T18:43:50Z</time>
      </trkpt>
      <trkpt lat="47.55927" lon="-1.54624">
        <ele>56</ele>
        <time>2022-11-29T18:44:14Z</time>
      </trkpt>
      <trkpt lat="47.55945" lon="-1.54631">
        <ele>54</ele>
        <time>2022-11-29T18:44:39Z</time>
      </trkpt>
      <trkpt lat="47.55964" lon="-1.54631">
        <ele>53</ele>
        <time>2022-11-29T18:45:04Z</time>
      </trkpt>
      <trkpt lat="47.55998" lon="-1.54611">
        <ele>50</ele>
        <time>2022-11-29T18:45:53Z</time>
      </trkpt>
      <trkpt lat="47.56017" lon="-1.54605">
        <ele>50</ele>
        <time>2022-11-29T18:46:19Z</time>
      </trkpt>
      <trkpt lat="47.56031" lon="-1.54587">
        <ele>50</ele>
        <time>2022-11-29T18:46:44Z</time>
      </trkpt>
      <trkpt lat="47.56048" lon="-1.54577">
        <ele>50</ele>
        <time>2022-11-29T18:47:08Z</time>
      </trkpt>
      <trkpt lat="47.56084" lon="-1.54574">
        <ele>50</ele>
        <time>2022-11-29T18:47:56Z</time>
      </trkpt>
      <trkpt lat="47.56101" lon="-1.54587">
        <ele>49</ele>
        <time>2022-11-29T18:48:22Z</time>
      </trkpt>
      <trkpt lat="47.56119" lon="-1.54595">
        <ele>49</ele>
        <time>2022-11-29T18:48:47Z</time>
      </trkpt>
      <trkpt lat="47.56137" lon="-1.5459">
        <ele>49</ele>
        <time>2022-11-29T18:49:11Z</time>
      </trkpt>
      <trkpt lat="47.56156" lon="-1.54589">
        <ele>49</ele>
        <time>2022-11-29T18:49:37Z</time>
      </trkpt>
      <trkpt lat="47.56175" lon="-1.54592">
        <ele>49</ele>
        <time>2022-11-29T18:50:02Z</time>
      </trkpt>
      <trkpt lat="47.56193" lon="-1.54591">
        <ele>49</ele>
        <time>2022-11-29T18:50:26Z</time>
      </trkpt>
      <trkpt lat="47.5623" lon="-1.54597">
        <ele>47</ele>
        <time>2022-11-29T18:51:16Z</time>
      </trkpt>
      <trkpt lat="47.56248" lon="-1.54591">
        <ele>47</ele>
        <time>2022-11-29T18:51:40Z</time>
      </trkpt>
      <trkpt lat="47.56254" lon="-1.54566">
        <ele>48</ele>
        <time>2022-11-29T18:52:04Z</time>
      </trkpt>
      <trkpt lat="47.56272" lon="-1.54566">
        <ele>47</ele>
        <time>2022-11-29T18:52:28Z</time>
      </trkpt>
      <trkpt lat="47.56289" lon="-1.54553">
        <ele>46</ele>
        <time>2022-11-29T18:52:54Z</time>
      </trkpt>
      <trkpt lat="47.56321" lon="-1.54485">
        <ele>47</ele>
        <time>2022-11-29T18:54:08Z</time>
      </trkpt>
      <trkpt lat="47.56337" lon="-1.54472">
        <ele>46</ele>
        <time>2022-11-29T18:54:33Z</time>
      </trkpt>
      <trkpt lat="47.56352" lon="-1.54455">
        <ele>45</ele>
        <time>2022-11-29T18:54:58Z</time>
      </trkpt>
      <trkpt lat="47.56374" lon="-1.5441">
        <ele>44</ele>
        <time>2022-11-29T18:55:48Z</time>
      </trkpt>
      <trkpt lat="47.56368" lon="-1.54384">
        <ele>45</ele>
        <time>2022-11-29T18:56:13Z</time>
      </trkpt>
      <trkpt lat="47.56375" lon="-1.54359">
        <ele>45</ele>
        <time>2022-11-29T18:56:37Z</time>
      </trkpt>
      <trkpt lat="47.56389" lon="-1.54342">
        <ele>45</ele>
        <time>2022-11-29T18:57:01Z</time>
      </trkpt>
      <trkpt lat="47.56406" lon="-1.54329">
        <ele>44</ele>
        <time>2022-11-29T18:57:27Z</time>
      </trkpt>
      <trkpt lat="47.56436" lon="-1.54297">
        <ele>43</ele>
        <time>2022-11-29T18:58:16Z</time>
      </trkpt>
      <trkpt lat="47.56446" lon="-1.54275">
        <ele>43</ele>
        <time>2022-11-29T18:58:40Z</time>
      </trkpt>
      <trkpt lat="47.56427" lon="-1.54229">
        <ele>43</ele>
        <time>2022-11-29T18:59:29Z</time>
      </trkpt>
      <trkpt lat="47.56444" lon="-1.5418">
        <ele>42</ele>
        <time>2022-11-29T19:00:18Z</time>
      </trkpt>
      <trkpt lat="47.56478" lon="-1.54159">
        <ele>42</ele>
        <time>2022-11-29T19:01:07Z</time>
      </trkpt>
      <trkpt lat="47.56496" lon="-1.54155">
        <ele>41</ele>
        <time>2022-11-29T19:01:32Z</time>
      </trkpt>
      <trkpt lat="47.56506" lon="-1.54133">
        <ele>41</ele>
        <time>2022-11-29T19:01:56Z</time>
      </trkpt>
      <trkpt lat="47.56523" lon="-1.54121">
        <ele>41</ele>
        <time>2022-11-29T19:02:21Z</time>
      </trkpt>
      <trkpt lat="47.56526" lon="-1.54066">
        <ele>42</ele>
        <time>2022-11-29T19:03:10Z</time>
      </trkpt>
      <trkpt lat="47.56526" lon="-1.53956">
        <ele>45</ele>
        <time>2022-11-29T19:04:49Z</time>
      </trkpt>
      <trkpt lat="47.56529" lon="-1.53929">
        <ele>45</ele>
        <time>2022-11-29T19:05:14Z</time>
      </trkpt>
      <trkpt lat="47.56527" lon="-1.53846">
        <ele>47</ele>
        <time>2022-11-29T19:06:29Z</time>
      </trkpt>
      <trkpt lat="47.5653" lon="-1.53818">
        <ele>47</ele>
        <time>2022-11-29T19:06:54Z</time>
      </trkpt>
      <trkpt lat="47.5653" lon="-1.53762">
        <ele>47</ele>
        <time>2022-11-29T19:07:45Z</time>
      </trkpt>
      <trkpt lat="47.56525" lon="-1.53736">
        <ele>46</ele>
        <time>2022-11-29T19:08:09Z</time>
      </trkpt>
      <trkpt lat="47.56509" lon="-1.53724">
        <ele>47</ele>
        <time>2022-11-29T19:08:33Z</time>
      </trkpt>
      <trkpt lat="47.56455" lon="-1.53698">
        <ele>48</ele>
        <time>2022-11-29T19:09:49Z</time>
      </trkpt>
      <trkpt lat="47.56451" lon="-1.53672">
        <ele>47</ele>
        <time>2022-11-29T19:10:13Z</time>
      </trkpt>
      <trkpt lat="47.5646" lon="-1.53648">
        <ele>46</ele>
        <time>2022-11-29T19:10:38Z</time>
      </trkpt>
      <trkpt lat="47.56495" lon="-1.53492">
        <ele>42</ele>
        <time>2022-11-29T19:13:06Z</time>
      </trkpt>
      <trkpt lat="47.56503" lon="-1.53466">
        <ele>42</ele>
        <time>2022-11-29T19:13:31Z</time>
      </trkpt>
      <trkpt lat="47.56526" lon="-1.53332">
        <ele>41</ele>
        <time>2022-11-29T19:15:36Z</time>
      </trkpt>
      <trkpt lat="47.56538" lon="-1.53281">
        <ele>41</ele>
        <time>2022-11-29T19:16:24Z</time>
      </trkpt>
      <trkpt lat="47.5653" lon="-1.53172">
        <ele>39</ele>
        <time>2022-11-29T19:18:03Z</time>
      </trkpt>
      <trkpt lat="47.5654" lon="-1.5315">
        <ele>39</ele>
        <time>2022-11-29T19:18:27Z</time>
      </trkpt>
      <trkpt lat="47.56597" lon="-1.53165">
        <ele>39</ele>
        <time>2022-11-29T19:19:44Z</time>
      </trkpt>
      <trkpt lat="47.56614" lon="-1.53174">
        <ele>38</ele>
        <time>2022-11-29T19:20:08Z</time>
      </trkpt>
      <trkpt lat="47.56627" lon="-1.53193">
        <ele>38</ele>
        <time>2022-11-29T19:20:33Z</time>
      </trkpt>
      <trkpt lat="47.56714" lon="-1.53438">
        <ele>39</ele>
        <time>2022-11-29T19:24:42Z</time>
      </trkpt>
      <trkpt lat="47.5673" lon="-1.53489">
        <ele>39</ele>
        <time>2022-11-29T19:25:33Z</time>
      </trkpt>
      <trkpt lat="47.56775" lon="-1.53609">
        <ele>37</ele>
        <time>2022-11-29T19:27:36Z</time>
      </trkpt>
      <trkpt lat="47.56829" lon="-1.53617">
        <ele>37</ele>
        <time>2022-11-29T19:28:49Z</time>
      </trkpt>
      <trkpt lat="47.56885" lon="-1.5363">
        <ele>37</ele>
        <time>2022-11-29T19:30:04Z</time>
      </trkpt>
      <trkpt lat="47.5694" lon="-1.53638">
        <ele>36</ele>
        <time>2022-11-29T19:31:18Z</time>
      </trkpt>
      <trkpt lat="47.56958" lon="-1.53644">
        <ele>35</ele>
        <time>2022-11-29T19:31:43Z</time>
      </trkpt>
      <trkpt lat="47.57071" lon="-1.53737">
        <ele>35</ele>
        <time>2022-11-29T19:34:35Z</time>
      </trkpt>
      <trkpt lat="47.57118" lon="-1.5378">
        <ele>34</ele>
        <time>2022-11-29T19:35:49Z</time>
      </trkpt>
      <trkpt lat="47.57152" lon="-1.53803">
        <ele>34</ele>
        <time>2022-11-29T19:36:39Z</time>
      </trkpt>
      <trkpt lat="47.57184" lon="-1.53832">
        <ele>34</ele>
        <time>2022-11-29T19:37:29Z</time>
      </trkpt>
      <trkpt lat="47.57198" lon="-1.5385">
        <ele>35</ele>
        <time>2022-11-29T19:37:54Z</time>
      </trkpt>
      <trkpt lat="47.57207" lon="-1.53876">
        <ele>34</ele>
        <time>2022-11-29T19:38:20Z</time>
      </trkpt>
      <trkpt lat="47.57218" lon="-1.53896">
        <ele>34</ele>
        <time>2022-11-29T19:38:43Z</time>
      </trkpt>
      <trkpt lat="47.57232" lon="-1.53914">
        <ele>35</ele>
        <time>2022-11-29T19:39:08Z</time>
      </trkpt>
      <trkpt lat="47.57249" lon="-1.53927">
        <ele>35</ele>
        <time>2022-11-29T19:39:33Z</time>
      </trkpt>
      <trkpt lat="47.57328" lon="-1.54004">
        <ele>34</ele>
        <time>2022-11-29T19:41:40Z</time>
      </trkpt>
      <trkpt lat="47.57385" lon="-1.54076">
        <ele>33</ele>
        <time>2022-11-29T19:43:20Z</time>
      </trkpt>
      <trkpt lat="47.57416" lon="-1.5411">
        <ele>33</ele>
        <time>2022-11-29T19:44:11Z</time>
      </trkpt>
      <trkpt lat="47.57433" lon="-1.54119">
        <ele>34</ele>
        <time>2022-11-29T19:44:35Z</time>
      </trkpt>
      <trkpt lat="47.57581" lon="-1.54146">
        <ele>38</ele>
        <time>2022-11-29T19:47:54Z</time>
      </trkpt>
      <trkpt lat="47.57638" lon="-1.54148">
        <ele>38</ele>
        <time>2022-11-29T19:49:10Z</time>
      </trkpt>
      <trkpt lat="47.57675" lon="-1.54139">
        <ele>38</ele>
        <time>2022-11-29T19:50:00Z</time>
      </trkpt>
      <trkpt lat="47.57711" lon="-1.54124">
        <ele>39</ele>
        <time>2022-11-29T19:50:50Z</time>
      </trkpt>
      <trkpt lat="47.57749" lon="-1.54118">
        <ele>39</ele>
        <time>2022-11-29T19:51:41Z</time>
      </trkpt>
      <trkpt lat="47.57785" lon="-1.5412">
        <ele>41</ele>
        <time>2022-11-29T19:52:29Z</time>
      </trkpt>
      <trkpt lat="47.5784" lon="-1.5413">
        <ele>43</ele>
        <time>2022-11-29T19:53:43Z</time>
      </trkpt>
      <trkpt lat="47.57858" lon="-1.54128">
        <ele>42</ele>
        <time>2022-11-29T19:54:07Z</time>
      </trkpt>
      <trkpt lat="47.57862" lon="-1.54101">
        <ele>42</ele>
        <time>2022-11-29T19:54:32Z</time>
      </trkpt>
      <trkpt lat="47.57855" lon="-1.53964">
        <ele>41</ele>
        <time>2022-11-29T19:56:36Z</time>
      </trkpt>
      <trkpt lat="47.57855" lon="-1.53855">
        <ele>40</ele>
        <time>2022-11-29T19:58:14Z</time>
      </trkpt>
      <trkpt lat="47.5785" lon="-1.538">
        <ele>40</ele>
        <time>2022-11-29T19:59:04Z</time>
      </trkpt>
      <trkpt lat="47.57849" lon="-1.53745">
        <ele>39</ele>
        <time>2022-11-29T19:59:53Z</time>
      </trkpt>
      <trkpt lat="47.57856" lon="-1.53635">
        <ele>36</ele>
        <time>2022-11-29T20:01:33Z</time>
      </trkpt>
      <trkpt lat="47.5786" lon="-1.53524">
        <ele>37</ele>
        <time>2022-11-29T20:03:13Z</time>
      </trkpt>
      <trkpt lat="47.57865" lon="-1.5347">
        <ele>37</ele>
        <time>2022-11-29T20:04:02Z</time>
      </trkpt>
      <trkpt lat="47.57871" lon="-1.53444">
        <ele>37</ele>
        <time>2022-11-29T20:04:27Z</time>
      </trkpt>
      <trkpt lat="47.57899" lon="-1.53371">
        <ele>35</ele>
        <time>2022-11-29T20:05:42Z</time>
      </trkpt>
      <trkpt lat="47.57915" lon="-1.5332">
        <ele>33</ele>
        <time>2022-11-29T20:06:33Z</time>
      </trkpt>
      <trkpt lat="47.57929" lon="-1.53303">
        <ele>34</ele>
        <time>2022-11-29T20:06:57Z</time>
      </trkpt>
      <trkpt lat="47.58051" lon="-1.53368">
        <ele>33</ele>
        <time>2022-11-29T20:09:50Z</time>
      </trkpt>
      <trkpt lat="47.58069" lon="-1.5337">
        <ele>33</ele>
        <time>2022-11-29T20:10:14Z</time>
      </trkpt>
      <trkpt lat="47.58097" lon="-1.53333">
        <ele>33</ele>
        <time>2022-11-29T20:11:04Z</time>
      </trkpt>
      <trkpt lat="47.58128" lon="-1.53306">
        <ele>33</ele>
        <time>2022-11-29T20:11:52Z</time>
      </trkpt>
      <trkpt lat="47.58146" lon="-1.53311">
        <ele>33</ele>
        <time>2022-11-29T20:12:17Z</time>
      </trkpt>
      <trkpt lat="47.58161" lon="-1.53326">
        <ele>33</ele>
        <time>2022-11-29T20:12:41Z</time>
      </trkpt>
      <trkpt lat="47.58242" lon="-1.53388">
        <ele>31</ele>
        <time>2022-11-29T20:14:42Z</time>
      </trkpt>
      <trkpt lat="47.58309" lon="-1.53434">
        <ele>30</ele>
        <time>2022-11-29T20:16:21Z</time>
      </trkpt>
      <trkpt lat="47.58676" lon="-1.53637">
        <ele>27</ele>
        <time>2022-11-29T20:25:04Z</time>
      </trkpt>
      <trkpt lat="47.58691" lon="-1.53653">
        <ele>27</ele>
        <time>2022-11-29T20:25:28Z</time>
      </trkpt>
      <trkpt lat="47.58689" lon="-1.53681">
        <ele>27</ele>
        <time>2022-11-29T20:25:54Z</time>
      </trkpt>
      <trkpt lat="47.58633" lon="-1.5406">
        <ele>26</ele>
        <time>2022-11-29T20:31:43Z</time>
      </trkpt>
      <trkpt lat="47.58626" lon="-1.54085">
        <ele>26</ele>
        <time>2022-11-29T20:32:07Z</time>
      </trkpt>
      <trkpt lat="47.58599" lon="-1.54125">
        <ele>27</ele>
        <time>2022-11-29T20:32:58Z</time>
      </trkpt>
      <trkpt lat="47.58591" lon="-1.54149">
        <ele>27</ele>
        <time>2022-11-29T20:33:22Z</time>
      </trkpt>
      <trkpt lat="47.58554" lon="-1.54304">
        <ele>27</ele>
        <time>2022-11-29T20:35:50Z</time>
      </trkpt>
      <trkpt lat="47.58541" lon="-1.54325">
        <ele>27</ele>
        <time>2022-11-29T20:36:16Z</time>
      </trkpt>
      <trkpt lat="47.58523" lon="-1.54332">
        <ele>27</ele>
        <time>2022-11-29T20:36:41Z</time>
      </trkpt>
      <trkpt lat="47.58506" lon="-1.54342">
        <ele>27</ele>
        <time>2022-11-29T20:37:05Z</time>
      </trkpt>
      <trkpt lat="47.585" lon="-1.54368">
        <ele>27</ele>
        <time>2022-11-29T20:37:30Z</time>
      </trkpt>
      <trkpt lat="47.58519" lon="-1.54476">
        <ele>27</ele>
        <time>2022-11-29T20:39:10Z</time>
      </trkpt>
      <trkpt lat="47.58558" lon="-1.54746">
        <ele>28</ele>
        <time>2022-11-29T20:43:19Z</time>
      </trkpt>
      <trkpt lat="47.5857" lon="-1.548">
        <ele>29</ele>
        <time>2022-11-29T20:44:10Z</time>
      </trkpt>
      <trkpt lat="47.58585" lon="-1.54815">
        <ele>29</ele>
        <time>2022-11-29T20:44:34Z</time>
      </trkpt>
      <trkpt lat="47.58694" lon="-1.54781">
        <ele>26</ele>
        <time>2022-11-29T20:47:03Z</time>
      </trkpt>
      <trkpt lat="47.5886" lon="-1.54736">
        <ele>26</ele>
        <time>2022-11-29T20:50:48Z</time>
      </trkpt>
      <trkpt lat="47.58896" lon="-1.54723">
        <ele>25</ele>
        <time>2022-11-29T20:51:38Z</time>
      </trkpt>
      <trkpt lat="47.58931" lon="-1.54707">
        <ele>25</ele>
        <time>2022-11-29T20:52:26Z</time>
      </trkpt>
      <trkpt lat="47.59018" lon="-1.54658">
        <ele>25</ele>
        <time>2022-11-29T20:54:31Z</time>
      </trkpt>
      <trkpt lat="47.59032" lon="-1.54675">
        <ele>25</ele>
        <time>2022-11-29T20:54:55Z</time>
      </trkpt>
      <trkpt lat="47.59058" lon="-1.54748">
        <ele>24</ele>
        <time>2022-11-29T20:56:09Z</time>
      </trkpt>
      <trkpt lat="47.5911" lon="-1.54864">
        <ele>25</ele>
        <time>2022-11-29T20:58:14Z</time>
      </trkpt>
      <trkpt lat="47.59122" lon="-1.54886">
        <ele>25</ele>
        <time>2022-11-29T20:58:40Z</time>
      </trkpt>
      <trkpt lat="47.5914" lon="-1.54883">
        <ele>25</ele>
        <time>2022-11-29T20:59:04Z</time>
      </trkpt>
      <trkpt lat="47.59202" lon="-1.5482">
        <ele>24</ele>
        <time>2022-11-29T21:00:44Z</time>
      </trkpt>
      <trkpt lat="47.59219" lon="-1.54808">
        <ele>24</ele>
        <time>2022-11-29T21:01:09Z</time>
      </trkpt>
      <trkpt lat="47.59274" lon="-1.54793">
        <ele>24</ele>
        <time>2022-11-29T21:02:24Z</time>
      </trkpt>
      <trkpt lat="47.59291" lon="-1.54783">
        <ele>25</ele>
        <time>2022-11-29T21:02:48Z</time>
      </trkpt>
      <trkpt lat="47.59306" lon="-1.54766">
        <ele>25</ele>
        <time>2022-11-29T21:03:14Z</time>
      </trkpt>
      <trkpt lat="47.59318" lon="-1.54745">
        <ele>25</ele>
        <time>2022-11-29T21:03:38Z</time>
      </trkpt>
      <trkpt lat="47.59321" lon="-1.54717">
        <ele>25</ele>
        <time>2022-11-29T21:04:04Z</time>
      </trkpt>
      <trkpt lat="47.59337" lon="-1.54702">
        <ele>25</ele>
        <time>2022-11-29T21:04:29Z</time>
      </trkpt>
      <trkpt lat="47.5942" lon="-1.54638">
        <ele>26</ele>
        <time>2022-11-29T21:06:34Z</time>
      </trkpt>
      <trkpt lat="47.59435" lon="-1.54622">
        <ele>25</ele>
        <time>2022-11-29T21:06:59Z</time>
      </trkpt>
      <trkpt lat="47.59469" lon="-1.54599">
        <ele>25</ele>
        <time>2022-11-29T21:07:49Z</time>
      </trkpt>
      <trkpt lat="47.59503" lon="-1.54572">
        <ele>25</ele>
        <time>2022-11-29T21:08:40Z</time>
      </trkpt>
      <trkpt lat="47.5952" lon="-1.54563">
        <ele>25</ele>
        <time>2022-11-29T21:09:04Z</time>
      </trkpt>
      <trkpt lat="47.59634" lon="-1.5447">
        <ele>27</ele>
        <time>2022-11-29T21:11:58Z</time>
      </trkpt>
      <trkpt lat="47.59652" lon="-1.54459">
        <ele>27</ele>
        <time>2022-11-29T21:12:24Z</time>
      </trkpt>
      <trkpt lat="47.59668" lon="-1.54445">
        <ele>28</ele>
        <time>2022-11-29T21:12:49Z</time>
      </trkpt>
      <trkpt lat="47.59752" lon="-1.54384">
        <ele>29</ele>
        <time>2022-11-29T21:14:53Z</time>
      </trkpt>
      <trkpt lat="47.59865" lon="-1.5429">
        <ele>28</ele>
        <time>2022-11-29T21:17:46Z</time>
      </trkpt>
      <trkpt lat="47.59883" lon="-1.54284">
        <ele>27</ele>
        <time>2022-11-29T21:18:11Z</time>
      </trkpt>
      <trkpt lat="47.60016" lon="-1.54268">
        <ele>27</ele>
        <time>2022-11-29T21:21:09Z</time>
      </trkpt>
      <trkpt lat="47.6003" lon="-1.54251">
        <ele>27</ele>
        <time>2022-11-29T21:21:33Z</time>
      </trkpt>
      <trkpt lat="47.60044" lon="-1.542">
        <ele>27</ele>
        <time>2022-11-29T21:22:23Z</time>
      </trkpt>
      <trkpt lat="47.60053" lon="-1.54177">
        <ele>27</ele>
        <time>2022-11-29T21:22:47Z</time>
      </trkpt>
      <trkpt lat="47.60084" lon="-1.54076">
        <ele>27</ele>
        <time>2022-11-29T21:24:26Z</time>
      </trkpt>
      <trkpt lat="47.60158" lon="-1.53821">
        <ele>26</ele>
        <time>2022-11-29T21:28:36Z</time>
      </trkpt>
      <trkpt lat="47.60164" lon="-1.53794">
        <ele>26</ele>
        <time>2022-11-29T21:29:02Z</time>
      </trkpt>
      <trkpt lat="47.60219" lon="-1.53617">
        <ele>27</ele>
        <time>2022-11-29T21:31:57Z</time>
      </trkpt>
      <trkpt lat="47.60231" lon="-1.53565">
        <ele>28</ele>
        <time>2022-11-29T21:32:47Z</time>
      </trkpt>
      <trkpt lat="47.60253" lon="-1.53489">
        <ele>27</ele>
        <time>2022-11-29T21:34:01Z</time>
      </trkpt>
      <trkpt lat="47.60277" lon="-1.53416">
        <ele>29</ele>
        <time>2022-11-29T21:35:14Z</time>
      </trkpt>
      <trkpt lat="47.60275" lon="-1.53389">
        <ele>29</ele>
        <time>2022-11-29T21:35:39Z</time>
      </trkpt>
      <trkpt lat="47.60295" lon="-1.53342">
        <ele>29</ele>
        <time>2022-11-29T21:36:29Z</time>
      </trkpt>
      <trkpt lat="47.60308" lon="-1.53323">
        <ele>29</ele>
        <time>2022-11-29T21:36:53Z</time>
      </trkpt>
      <trkpt lat="47.60343" lon="-1.5326">
        <ele>27</ele>
        <time>2022-11-29T21:38:06Z</time>
      </trkpt>
      <trkpt lat="47.60352" lon="-1.53236">
        <ele>26</ele>
        <time>2022-11-29T21:38:31Z</time>
      </trkpt>
      <trkpt lat="47.60364" lon="-1.53214">
        <ele>26</ele>
        <time>2022-11-29T21:38:57Z</time>
      </trkpt>
      <trkpt lat="47.60417" lon="-1.53136">
        <ele>27</ele>
        <time>2022-11-29T21:40:36Z</time>
      </trkpt>
      <trkpt lat="47.60442" lon="-1.53093">
        <ele>27</ele>
        <time>2022-11-29T21:41:27Z</time>
      </trkpt>
      <trkpt lat="47.60451" lon="-1.53069">
        <ele>27</ele>
        <time>2022-11-29T21:41:52Z</time>
      </trkpt>
      <trkpt lat="47.60454" lon="-1.53041">
        <ele>27</ele>
        <time>2022-11-29T21:42:17Z</time>
      </trkpt>
      <trkpt lat="47.60453" lon="-1.53014">
        <ele>27</ele>
        <time>2022-11-29T21:42:42Z</time>
      </trkpt>
      <trkpt lat="47.60458" lon="-1.52988">
        <ele>27</ele>
        <time>2022-11-29T21:43:06Z</time>
      </trkpt>
      <trkpt lat="47.6046" lon="-1.52929">
        <ele>28</ele>
        <time>2022-11-29T21:43:59Z</time>
      </trkpt>
      <trkpt lat="47.60459" lon="-1.52875">
        <ele>28</ele>
        <time>2022-11-29T21:44:48Z</time>
      </trkpt>
      <trkpt lat="47.60456" lon="-1.52848">
        <ele>27</ele>
        <time>2022-11-29T21:45:13Z</time>
      </trkpt>
      <trkpt lat="47.60458" lon="-1.5282">
        <ele>27</ele>
        <time>2022-11-29T21:45:38Z</time>
      </trkpt>
      <trkpt lat="47.60455" lon="-1.52794">
        <ele>27</ele>
        <time>2022-11-29T21:46:02Z</time>
      </trkpt>
      <trkpt lat="47.60415" lon="-1.52732">
        <ele>28</ele>
        <time>2022-11-29T21:47:19Z</time>
      </trkpt>
      <trkpt lat="47.60397" lon="-1.52727">
        <ele>28</ele>
        <time>2022-11-29T21:47:43Z</time>
      </trkpt>
      <trkpt lat="47.60368" lon="-1.52696">
        <ele>28</ele>
        <time>2022-11-29T21:48:31Z</time>
      </trkpt>
      <trkpt lat="47.60352" lon="-1.52683">
        <ele>28</ele>
        <time>2022-11-29T21:48:55Z</time>
      </trkpt>
      <trkpt lat="47.60339" lon="-1.52662">
        <ele>28</ele>
        <time>2022-11-29T21:49:21Z</time>
      </trkpt>
      <trkpt lat="47.60322" lon="-1.52649">
        <ele>29</ele>
        <time>2022-11-29T21:49:46Z</time>
      </trkpt>
      <trkpt lat="47.60304" lon="-1.52654">
        <ele>28</ele>
        <time>2022-11-29T21:50:11Z</time>
      </trkpt>
      <trkpt lat="47.60287" lon="-1.52663">
        <ele>28</ele>
        <time>2022-11-29T21:50:35Z</time>
      </trkpt>
      <trkpt lat="47.60271" lon="-1.52675">
        <ele>28</ele>
        <time>2022-11-29T21:50:59Z</time>
      </trkpt>
      <trkpt lat="47.60255" lon="-1.52692">
        <ele>27</ele>
        <time>2022-11-29T21:51:25Z</time>
      </trkpt>
      <trkpt lat="47.60245" lon="-1.52714">
        <ele>27</ele>
        <time>2022-11-29T21:51:49Z</time>
      </trkpt>
      <trkpt lat="47.60215" lon="-1.52745">
        <ele>27</ele>
        <time>2022-11-29T21:52:38Z</time>
      </trkpt>
      <trkpt lat="47.60204" lon="-1.52766">
        <ele>26</ele>
        <time>2022-11-29T21:53:02Z</time>
      </trkpt>
      <trkpt lat="47.60192" lon="-1.52818">
        <ele>26</ele>
        <time>2022-11-29T21:53:51Z</time>
      </trkpt>
      <trkpt lat="47.60183" lon="-1.52841">
        <ele>26</ele>
        <time>2022-11-29T21:54:15Z</time>
      </trkpt>
      <trkpt lat="47.60156" lon="-1.52878">
        <ele>26</ele>
        <time>2022-11-29T21:55:04Z</time>
      </trkpt>
      <trkpt lat="47.60182" lon="-1.52839">
        <ele>26</ele>
        <time>2022-11-29T21:55:54Z</time>
      </trkpt>
      <trkpt lat="47.60192" lon="-1.52817">
        <ele>26</ele>
        <time>2022-11-29T21:56:17Z</time>
      </trkpt>
      <trkpt lat="47.60203" lon="-1.52764">
        <ele>26</ele>
        <time>2022-11-29T21:57:07Z</time>
      </trkpt>
      <trkpt lat="47.6022" lon="-1.52715">
        <ele>27</ele>
        <time>2022-11-29T21:57:57Z</time>
      </trkpt>
      <trkpt lat="47.60236" lon="-1.527">
        <ele>27</ele>
        <time>2022-11-29T21:58:22Z</time>
      </trkpt>
      <trkpt lat="47.60265" lon="-1.52666">
        <ele>28</ele>
        <time>2022-11-29T21:59:12Z</time>
      </trkpt>
      <trkpt lat="47.60276" lon="-1.52644">
        <ele>29</ele>
        <time>2022-11-29T21:59:36Z</time>
      </trkpt>
      <trkpt lat="47.60325" lon="-1.52465">
        <ele>32</ele>
        <time>2022-11-29T22:02:30Z</time>
      </trkpt>
      <trkpt lat="47.60361" lon="-1.52441">
        <ele>31</ele>
        <time>2022-11-29T22:03:23Z</time>
      </trkpt>
      <trkpt lat="47.60325" lon="-1.52455">
        <ele>31</ele>
        <time>2022-11-29T22:04:12Z</time>
      </trkpt>
      <trkpt lat="47.60306" lon="-1.52455">
        <ele>31</ele>
        <time>2022-11-29T22:04:38Z</time>
      </trkpt>
      <trkpt lat="47.60289" lon="-1.52465">
        <ele>31</ele>
        <time>2022-11-29T22:05:02Z</time>
      </trkpt>
      <trkpt lat="47.60273" lon="-1.52479">
        <ele>32</ele>
        <time>2022-11-29T22:05:27Z</time>
      </trkpt>
      <trkpt lat="47.6024" lon="-1.52501">
        <ele>32</ele>
        <time>2022-11-29T22:06:15Z</time>
      </trkpt>
      <trkpt lat="47.60239" lon="-1.52529">
        <ele>31</ele>
        <time>2022-11-29T22:06:40Z</time>
      </trkpt>
      <trkpt lat="47.60245" lon="-1.52555">
        <ele>31</ele>
        <time>2022-11-29T22:07:05Z</time>
      </trkpt>
      <trkpt lat="47.60245" lon="-1.52582">
        <ele>31</ele>
        <time>2022-11-29T22:07:29Z</time>
      </trkpt>
      <trkpt lat="47.60233" lon="-1.52604">
        <ele>30</ele>
        <time>2022-11-29T22:07:55Z</time>
      </trkpt>
      <trkpt lat="47.60166" lon="-1.52652">
        <ele>30</ele>
        <time>2022-11-29T22:09:34Z</time>
      </trkpt>
      <trkpt lat="47.60149" lon="-1.52661">
        <ele>30</ele>
        <time>2022-11-29T22:09:58Z</time>
      </trkpt>
      <trkpt lat="47.60131" lon="-1.52667">
        <ele>30</ele>
        <time>2022-11-29T22:10:23Z</time>
      </trkpt>
      <trkpt lat="47.60094" lon="-1.52674">
        <ele>30</ele>
        <time>2022-11-29T22:11:13Z</time>
      </trkpt>
      <trkpt lat="47.60076" lon="-1.52675">
        <ele>30</ele>
        <time>2022-11-29T22:11:37Z</time>
      </trkpt>
      <trkpt lat="47.60058" lon="-1.52672">
        <ele>31</ele>
        <time>2022-11-29T22:12:01Z</time>
      </trkpt>
      <trkpt lat="47.60041" lon="-1.52664">
        <ele>31</ele>
        <time>2022-11-29T22:12:25Z</time>
      </trkpt>
      <trkpt lat="47.60022" lon="-1.52667">
        <ele>31</ele>
        <time>2022-11-29T22:12:50Z</time>
      </trkpt>
      <trkpt lat="47.60004" lon="-1.52673">
        <ele>31</ele>
        <time>2022-11-29T22:13:15Z</time>
      </trkpt>
      <trkpt lat="47.59986" lon="-1.52667">
        <ele>30</ele>
        <time>2022-11-29T22:13:39Z</time>
      </trkpt>
      <trkpt lat="47.5995" lon="-1.52678">
        <ele>29</ele>
        <time>2022-11-29T22:14:28Z</time>
      </trkpt>
      <trkpt lat="47.59932" lon="-1.52687">
        <ele>28</ele>
        <time>2022-11-29T22:14:54Z</time>
      </trkpt>
      <trkpt lat="47.599" lon="-1.52716">
        <ele>28</ele>
        <time>2022-11-29T22:15:44Z</time>
      </trkpt>
      <trkpt lat="47.59882" lon="-1.52723">
        <ele>29</ele>
        <time>2022-11-29T22:16:09Z</time>
      </trkpt>
      <trkpt lat="47.59833" lon="-1.52759">
        <ele>32</ele>
        <time>2022-11-29T22:17:22Z</time>
      </trkpt>
      <trkpt lat="47.59816" lon="-1.52768">
        <ele>32</ele>
        <time>2022-11-29T22:17:46Z</time>
      </trkpt>
      <trkpt lat="47.59752" lon="-1.52827">
        <ele>35</ele>
        <time>2022-11-29T22:19:26Z</time>
      </trkpt>
      <trkpt lat="47.59749" lon="-1.52854">
        <ele>37</ele>
        <time>2022-11-29T22:19:51Z</time>
      </trkpt>
      <trkpt lat="47.59738" lon="-1.52878">
        <ele>38</ele>
        <time>2022-11-29T22:20:17Z</time>
      </trkpt>
      <trkpt lat="47.59723" lon="-1.52892">
        <ele>38</ele>
        <time>2022-11-29T22:20:41Z</time>
      </trkpt>
      <trkpt lat="47.59705" lon="-1.52899">
        <ele>38</ele>
        <time>2022-11-29T22:21:06Z</time>
      </trkpt>
      <trkpt lat="47.59691" lon="-1.52918">
        <ele>39</ele>
        <time>2022-11-29T22:21:31Z</time>
      </trkpt>
      <trkpt lat="47.59673" lon="-1.52919">
        <ele>38</ele>
        <time>2022-11-29T22:21:55Z</time>
      </trkpt>
      <trkpt lat="47.59646" lon="-1.52955">
        <ele>36</ele>
        <time>2022-11-29T22:22:43Z</time>
      </trkpt>
      <trkpt lat="47.59601" lon="-1.53006">
        <ele>35</ele>
        <time>2022-11-29T22:23:59Z</time>
      </trkpt>
      <trkpt lat="47.59589" lon="-1.53026">
        <ele>34</ele>
        <time>2022-11-29T22:24:23Z</time>
      </trkpt>
      <trkpt lat="47.59591" lon="-1.53053">
        <ele>34</ele>
        <time>2022-11-29T22:24:47Z</time>
      </trkpt>
      <trkpt lat="47.59589" lon="-1.53081">
        <ele>33</ele>
        <time>2022-11-29T22:25:13Z</time>
      </trkpt>
      <trkpt lat="47.59604" lon="-1.53215">
        <ele>34</ele>
        <time>2022-11-29T22:27:15Z</time>
      </trkpt>
      <trkpt lat="47.59609" lon="-1.53241">
        <ele>34</ele>
        <time>2022-11-29T22:27:39Z</time>
      </trkpt>
      <trkpt lat="47.596" lon="-1.53264">
        <ele>33</ele>
        <time>2022-11-29T22:28:03Z</time>
      </trkpt>
      <trkpt lat="47.59583" lon="-1.53254">
        <ele>34</ele>
        <time>2022-11-29T22:28:28Z</time>
      </trkpt>
      <trkpt lat="47.59565" lon="-1.5325">
        <ele>34</ele>
        <time>2022-11-29T22:28:52Z</time>
      </trkpt>
      <trkpt lat="47.59548" lon="-1.53255">
        <ele>33</ele>
        <time>2022-11-29T22:29:15Z</time>
      </trkpt>
      <trkpt lat="47.59445" lon="-1.53316">
        <ele>33</ele>
        <time>2022-11-29T22:31:43Z</time>
      </trkpt>
      <trkpt lat="47.59431" lon="-1.53335">
        <ele>34</ele>
        <time>2022-11-29T22:32:08Z</time>
      </trkpt>
      <trkpt lat="47.59426" lon="-1.53363">
        <ele>36</ele>
        <time>2022-11-29T22:32:34Z</time>
      </trkpt>
      <trkpt lat="47.59428" lon="-1.53418">
        <ele>41</ele>
        <time>2022-11-29T22:33:24Z</time>
      </trkpt>
      <trkpt lat="47.59433" lon="-1.53472">
        <ele>41</ele>
        <time>2022-11-29T22:34:13Z</time>
      </trkpt>
      <trkpt lat="47.59433" lon="-1.53527">
        <ele>41</ele>
        <time>2022-11-29T22:35:03Z</time>
      </trkpt>
      <trkpt lat="47.5943" lon="-1.53555">
        <ele>41</ele>
        <time>2022-11-29T22:35:28Z</time>
      </trkpt>
      <trkpt lat="47.59431" lon="-1.53611">
        <ele>41</ele>
        <time>2022-11-29T22:36:19Z</time>
      </trkpt>
      <trkpt lat="47.59427" lon="-1.53638">
        <ele>41</ele>
        <time>2022-11-29T22:36:43Z</time>
      </trkpt>
      <trkpt lat="47.59427" lon="-1.53723">
        <ele>39</ele>
        <time>2022-11-29T22:38:00Z</time>
      </trkpt>
      <trkpt lat="47.5943" lon="-1.5375">
        <ele>38</ele>
        <time>2022-11-29T22:38:25Z</time>
      </trkpt>
      <trkpt lat="47.59424" lon="-1.53888">
        <ele>35</ele>
        <time>2022-11-29T22:40:29Z</time>
      </trkpt>
      <trkpt lat="47.59425" lon="-1.54029">
        <ele>31</ele>
        <time>2022-11-29T22:42:36Z</time>
      </trkpt>
      <trkpt lat="47.59419" lon="-1.54084">
        <ele>29</ele>
        <time>2022-11-29T22:43:26Z</time>
      </trkpt>
      <trkpt lat="47.59398" lon="-1.54128">
        <ele>29</ele>
        <time>2022-11-29T22:44:15Z</time>
      </trkpt>
      <trkpt lat="47.594" lon="-1.54156">
        <ele>28</ele>
        <time>2022-11-29T22:44:40Z</time>
      </trkpt>
      <trkpt lat="47.59474" lon="-1.54285">
        <ele>26</ele>
        <time>2022-11-29T22:47:12Z</time>
      </trkpt>
      <trkpt lat="47.59496" lon="-1.54329">
        <ele>25</ele>
        <time>2022-11-29T22:48:02Z</time>
      </trkpt>
      <trkpt lat="47.5959" lon="-1.54498">
        <ele>26</ele>
        <time>2022-11-29T22:51:19Z</time>
      </trkpt>
      <trkpt lat="47.59578" lon="-1.54518">
        <ele>26</ele>
        <time>2022-11-29T22:51:43Z</time>
      </trkpt>
      <trkpt lat="47.59546" lon="-1.54544">
        <ele>25</ele>
        <time>2022-11-29T22:52:32Z</time>
      </trkpt>
      <trkpt lat="47.59529" lon="-1.54553">
        <ele>25</ele>
        <time>2022-11-29T22:52:56Z</time>
      </trkpt>
      <trkpt lat="47.59463" lon="-1.54606">
        <ele>25</ele>
        <time>2022-11-29T22:54:36Z</time>
      </trkpt>
      <trkpt lat="47.59395" lon="-1.54656">
        <ele>26</ele>
        <time>2022-11-29T22:56:17Z</time>
      </trkpt>
      <trkpt lat="47.5933" lon="-1.54709">
        <ele>25</ele>
        <time>2022-11-29T22:57:56Z</time>
      </trkpt>
      <trkpt lat="47.59311" lon="-1.54756">
        <ele>25</ele>
        <time>2022-11-29T22:58:45Z</time>
      </trkpt>
      <trkpt lat="47.593" lon="-1.54777">
        <ele>25</ele>
        <time>2022-11-29T22:59:09Z</time>
      </trkpt>
      <trkpt lat="47.59283" lon="-1.54787">
        <ele>25</ele>
        <time>2022-11-29T22:59:34Z</time>
      </trkpt>
      <trkpt lat="47.59264" lon="-1.54794">
        <ele>24</ele>
        <time>2022-11-29T23:00:00Z</time>
      </trkpt>
      <trkpt lat="47.59228" lon="-1.54801">
        <ele>24</ele>
        <time>2022-11-29T23:00:48Z</time>
      </trkpt>
      <trkpt lat="47.59195" lon="-1.54827">
        <ele>24</ele>
        <time>2022-11-29T23:01:38Z</time>
      </trkpt>
      <trkpt lat="47.5918" lon="-1.54844">
        <ele>24</ele>
        <time>2022-11-29T23:02:03Z</time>
      </trkpt>
      <trkpt lat="47.59164" lon="-1.54857">
        <ele>25</ele>
        <time>2022-11-29T23:02:28Z</time>
      </trkpt>
      <trkpt lat="47.59134" lon="-1.54891">
        <ele>25</ele>
        <time>2022-11-29T23:03:18Z</time>
      </trkpt>
      <trkpt lat="47.59116" lon="-1.54898">
        <ele>26</ele>
        <time>2022-11-29T23:03:43Z</time>
      </trkpt>
      <trkpt lat="47.59" lon="-1.54985">
        <ele>26</ele>
        <time>2022-11-29T23:06:36Z</time>
      </trkpt>
      <trkpt lat="47.58983" lon="-1.54993">
        <ele>26</ele>
        <time>2022-11-29T23:07:00Z</time>
      </trkpt>
      <trkpt lat="47.58929" lon="-1.55006">
        <ele>25</ele>
        <time>2022-11-29T23:08:13Z</time>
      </trkpt>
      <trkpt lat="47.58915" lon="-1.55024">
        <ele>25</ele>
        <time>2022-11-29T23:08:38Z</time>
      </trkpt>
      <trkpt lat="47.58906" lon="-1.55048">
        <ele>26</ele>
        <time>2022-11-29T23:09:03Z</time>
      </trkpt>
      <trkpt lat="47.58895" lon="-1.55025">
        <ele>26</ele>
        <time>2022-11-29T23:09:28Z</time>
      </trkpt>
      <trkpt lat="47.58879" lon="-1.55012">
        <ele>26</ele>
        <time>2022-11-29T23:09:52Z</time>
      </trkpt>
      <trkpt lat="47.58842" lon="-1.55017">
        <ele>26</ele>
        <time>2022-11-29T23:10:42Z</time>
      </trkpt>
      <trkpt lat="47.58824" lon="-1.55022">
        <ele>26</ele>
        <time>2022-11-29T23:11:06Z</time>
      </trkpt>
      <trkpt lat="47.58738" lon="-1.55073">
        <ele>28</ele>
        <time>2022-11-29T23:13:10Z</time>
      </trkpt>
      <trkpt lat="47.58721" lon="-1.55081">
        <ele>28</ele>
        <time>2022-11-29T23:13:34Z</time>
      </trkpt>
      <trkpt lat="47.58687" lon="-1.55102">
        <ele>28</ele>
        <time>2022-11-29T23:14:23Z</time>
      </trkpt>
      <trkpt lat="47.58671" lon="-1.55116">
        <ele>28</ele>
        <time>2022-11-29T23:14:48Z</time>
      </trkpt>
      <trkpt lat="47.58653" lon="-1.55126">
        <ele>28</ele>
        <time>2022-11-29T23:15:13Z</time>
      </trkpt>
      <trkpt lat="47.58634" lon="-1.55133">
        <ele>28</ele>
        <time>2022-11-29T23:15:39Z</time>
      </trkpt>
      <trkpt lat="47.58619" lon="-1.55147">
        <ele>29</ele>
        <time>2022-11-29T23:16:03Z</time>
      </trkpt>
      <trkpt lat="47.58584" lon="-1.55166">
        <ele>29</ele>
        <time>2022-11-29T23:16:53Z</time>
      </trkpt>
      <trkpt lat="47.58464" lon="-1.5524">
        <ele>33</ele>
        <time>2022-11-29T23:19:46Z</time>
      </trkpt>
      <trkpt lat="47.58438" lon="-1.55313">
        <ele>32</ele>
        <time>2022-11-29T23:21:01Z</time>
      </trkpt>
      <trkpt lat="47.58426" lon="-1.55334">
        <ele>32</ele>
        <time>2022-11-29T23:21:25Z</time>
      </trkpt>
      <trkpt lat="47.58399" lon="-1.55405">
        <ele>32</ele>
        <time>2022-11-29T23:22:39Z</time>
      </trkpt>
      <trkpt lat="47.58386" lon="-1.55427">
        <ele>32</ele>
        <time>2022-11-29T23:23:05Z</time>
      </trkpt>
      <trkpt lat="47.58376" lon="-1.55451">
        <ele>33</ele>
        <time>2022-11-29T23:23:30Z</time>
      </trkpt>
      <trkpt lat="47.58362" lon="-1.55468">
        <ele>34</ele>
        <time>2022-11-29T23:23:55Z</time>
      </trkpt>
      <trkpt lat="47.58353" lon="-1.55492">
        <ele>35</ele>
        <time>2022-11-29T23:24:19Z</time>
      </trkpt>
      <trkpt lat="47.58347" lon="-1.55573">
        <ele>36</ele>
        <time>2022-11-29T23:25:33Z</time>
      </trkpt>
      <trkpt lat="47.58336" lon="-1.55654">
        <ele>37</ele>
        <time>2022-11-29T23:26:47Z</time>
      </trkpt>
      <trkpt lat="47.58304" lon="-1.55751">
        <ele>38</ele>
        <time>2022-11-29T23:28:24Z</time>
      </trkpt>
      <trkpt lat="47.58294" lon="-1.55775">
        <ele>38</ele>
        <time>2022-11-29T23:28:50Z</time>
      </trkpt>
      <trkpt lat="47.58219" lon="-1.56027">
        <ele>37</ele>
        <time>2022-11-29T23:32:58Z</time>
      </trkpt>
      <trkpt lat="47.58206" lon="-1.56046">
        <ele>38</ele>
        <time>2022-11-29T23:33:22Z</time>
      </trkpt>
      <trkpt lat="47.58198" lon="-1.5607">
        <ele>37</ele>
        <time>2022-11-29T23:33:46Z</time>
      </trkpt>
      <trkpt lat="47.58186" lon="-1.56124">
        <ele>38</ele>
        <time>2022-11-29T23:34:37Z</time>
      </trkpt>
      <trkpt lat="47.58172" lon="-1.56173">
        <ele>39</ele>
        <time>2022-11-29T23:35:25Z</time>
      </trkpt>
      <trkpt lat="47.58162" lon="-1.56196">
        <ele>39</ele>
        <time>2022-11-29T23:35:50Z</time>
      </trkpt>
      <trkpt lat="47.5815" lon="-1.56276">
        <ele>39</ele>
        <time>2022-11-29T23:37:04Z</time>
      </trkpt>
      <trkpt lat="47.58152" lon="-1.56303">
        <ele>40</ele>
        <time>2022-11-29T23:37:28Z</time>
      </trkpt>
      <trkpt lat="47.58144" lon="-1.56327">
        <ele>40</ele>
        <time>2022-11-29T23:37:52Z</time>
      </trkpt>
      <trkpt lat="47.58131" lon="-1.56345">
        <ele>40</ele>
        <time>2022-11-29T23:38:16Z</time>
      </trkpt>
      <trkpt lat="47.58112" lon="-1.56355">
        <ele>39</ele>
        <time>2022-11-29T23:38:43Z</time>
      </trkpt>
      <trkpt lat="47.58078" lon="-1.56379">
        <ele>38</ele>
        <time>2022-11-29T23:39:33Z</time>
      </trkpt>
      <trkpt lat="47.58062" lon="-1.56394">
        <ele>37</ele>
        <time>2022-11-29T23:39:58Z</time>
      </trkpt>
      <trkpt lat="47.58012" lon="-1.56428">
        <ele>35</ele>
        <time>2022-11-29T23:41:12Z</time>
      </trkpt>
      <trkpt lat="47.57996" lon="-1.56443">
        <ele>34</ele>
        <time>2022-11-29T23:41:37Z</time>
      </trkpt>
      <trkpt lat="47.57978" lon="-1.56447">
        <ele>34</ele>
        <time>2022-11-29T23:42:01Z</time>
      </trkpt>
      <trkpt lat="47.57903" lon="-1.56449">
        <ele>34</ele>
        <time>2022-11-29T23:43:41Z</time>
      </trkpt>
      <trkpt lat="47.57866" lon="-1.56442">
        <ele>34</ele>
        <time>2022-11-29T23:44:31Z</time>
      </trkpt>
      <trkpt lat="47.57811" lon="-1.5642">
        <ele>33</ele>
        <time>2022-11-29T23:45:47Z</time>
      </trkpt>
      <trkpt lat="47.57757" lon="-1.56395">
        <ele>31</ele>
        <time>2022-11-29T23:47:03Z</time>
      </trkpt>
      <trkpt lat="47.5774" lon="-1.5639">
        <ele>31</ele>
        <time>2022-11-29T23:47:26Z</time>
      </trkpt>
      <trkpt lat="47.57702" lon="-1.56385">
        <ele>31</ele>
        <time>2022-11-29T23:48:17Z</time>
      </trkpt>
      <trkpt lat="47.57646" lon="-1.56382">
        <ele>30</ele>
        <time>2022-11-29T23:49:31Z</time>
      </trkpt>
      <trkpt lat="47.57572" lon="-1.56372">
        <ele>30</ele>
        <time>2022-11-29T23:51:11Z</time>
      </trkpt>
      <trkpt lat="47.57554" lon="-1.56362">
        <ele>30</ele>
        <time>2022-11-29T23:51:36Z</time>
      </trkpt>
      <trkpt lat="47.57505" lon="-1.56326">
        <ele>32</ele>
        <time>2022-11-29T23:52:49Z</time>
      </trkpt>
      <trkpt lat="47.5749" lon="-1.56311">
        <ele>32</ele>
        <time>2022-11-29T23:53:13Z</time>
      </trkpt>
      <trkpt lat="47.57477" lon="-1.56292">
        <ele>32</ele>
        <time>2022-11-29T23:53:38Z</time>
      </trkpt>
      <trkpt lat="47.57478" lon="-1.5621">
        <ele>31</ele>
        <time>2022-11-29T23:54:52Z</time>
      </trkpt>
      <trkpt lat="47.57487" lon="-1.56157">
        <ele>30</ele>
        <time>2022-11-29T23:55:41Z</time>
      </trkpt>
      <trkpt lat="47.575" lon="-1.56105">
        <ele>30</ele>
        <time>2022-11-29T23:56:31Z</time>
      </trkpt>
      <trkpt lat="47.57513" lon="-1.56025">
        <ele>29</ele>
        <time>2022-11-29T23:57:45Z</time>
      </trkpt>
      <trkpt lat="47.57519" lon="-1.55887">
        <ele>30</ele>
        <time>2022-11-29T23:59:49Z</time>
      </trkpt>
      <trkpt lat="47.57516" lon="-1.55363">
        <ele>32</ele>
        <time>2022-11-30T00:07:41Z</time>
      </trkpt>
      <trkpt lat="47.57513" lon="-1.55336">
        <ele>31</ele>
        <time>2022-11-30T00:08:06Z</time>
      </trkpt>
      <trkpt lat="47.57501" lon="-1.55315">
        <ele>31</ele>
        <time>2022-11-30T00:08:30Z</time>
      </trkpt>
      <trkpt lat="47.57487" lon="-1.55265">
        <ele>31</ele>
        <time>2022-11-30T00:09:19Z</time>
      </trkpt>
      <trkpt lat="47.57484" lon="-1.55238">
        <ele>32</ele>
        <time>2022-11-30T00:09:44Z</time>
      </trkpt>
      <trkpt lat="47.57494" lon="-1.55017">
        <ele>33</ele>
        <time>2022-11-30T00:13:03Z</time>
      </trkpt>
      <trkpt lat="47.57494" lon="-1.54935">
        <ele>32</ele>
        <time>2022-11-30T00:14:17Z</time>
      </trkpt>
      <trkpt lat="47.57478" lon="-1.54922">
        <ele>32</ele>
        <time>2022-11-30T00:14:41Z</time>
      </trkpt>
      <trkpt lat="47.57441" lon="-1.54916">
        <ele>32</ele>
        <time>2022-11-30T00:15:31Z</time>
      </trkpt>
      <trkpt lat="47.57424" lon="-1.54908">
        <ele>32</ele>
        <time>2022-11-30T00:15:55Z</time>
      </trkpt>
      <trkpt lat="47.57413" lon="-1.54884">
        <ele>32</ele>
        <time>2022-11-30T00:16:21Z</time>
      </trkpt>
      <trkpt lat="47.57399" lon="-1.54832">
        <ele>31</ele>
        <time>2022-11-30T00:17:11Z</time>
      </trkpt>
      <trkpt lat="47.5739" lon="-1.54808">
        <ele>31</ele>
        <time>2022-11-30T00:17:36Z</time>
      </trkpt>
      <trkpt lat="47.57384" lon="-1.54781">
        <ele>32</ele>
        <time>2022-11-30T00:18:02Z</time>
      </trkpt>
      <trkpt lat="47.57301" lon="-1.54505">
        <ele>32</ele>
        <time>2022-11-30T00:22:34Z</time>
      </trkpt>
      <trkpt lat="47.57289" lon="-1.54453">
        <ele>32</ele>
        <time>2022-11-30T00:23:23Z</time>
      </trkpt>
      <trkpt lat="47.57267" lon="-1.54407">
        <ele>32</ele>
        <time>2022-11-30T00:24:14Z</time>
      </trkpt>
      <trkpt lat="47.57166" lon="-1.54285">
        <ele>35</ele>
        <time>2022-11-30T00:27:08Z</time>
      </trkpt>
      <trkpt lat="47.57151" lon="-1.54269">
        <ele>35</ele>
        <time>2022-11-30T00:27:32Z</time>
      </trkpt>
      <trkpt lat="47.57072" lon="-1.54198">
        <ele>35</ele>
        <time>2022-11-30T00:29:36Z</time>
      </trkpt>
      <trkpt lat="47.57056" lon="-1.54185">
        <ele>35</ele>
        <time>2022-11-30T00:30:00Z</time>
      </trkpt>
      <trkpt lat="47.57039" lon="-1.54175">
        <ele>35</ele>
        <time>2022-11-30T00:30:25Z</time>
      </trkpt>
      <trkpt lat="47.57001" lon="-1.5417">
        <ele>35</ele>
        <time>2022-11-30T00:31:15Z</time>
      </trkpt>
      <trkpt lat="47.56945" lon="-1.5417">
        <ele>34</ele>
        <time>2022-11-30T00:32:30Z</time>
      </trkpt>
      <trkpt lat="47.56909" lon="-1.54164">
        <ele>34</ele>
        <time>2022-11-30T00:33:18Z</time>
      </trkpt>
      <trkpt lat="47.5678" lon="-1.54157">
        <ele>36</ele>
        <time>2022-11-30T00:36:11Z</time>
      </trkpt>
      <trkpt lat="47.56766" lon="-1.54139">
        <ele>36</ele>
        <time>2022-11-30T00:36:35Z</time>
      </trkpt>
      <trkpt lat="47.56765" lon="-1.54031">
        <ele>38</ele>
        <time>2022-11-30T00:38:13Z</time>
      </trkpt>
      <trkpt lat="47.56768" lon="-1.53947">
        <ele>37</ele>
        <time>2022-11-30T00:39:28Z</time>
      </trkpt>
      <trkpt lat="47.56777" lon="-1.53837">
        <ele>38</ele>
        <time>2022-11-30T00:41:08Z</time>
      </trkpt>
      <trkpt lat="47.56776" lon="-1.53755">
        <ele>38</ele>
        <time>2022-11-30T00:42:22Z</time>
      </trkpt>
      <trkpt lat="47.56771" lon="-1.53646">
        <ele>36</ele>
        <time>2022-11-30T00:44:00Z</time>
      </trkpt>
      <trkpt lat="47.56764" lon="-1.53592">
        <ele>37</ele>
        <time>2022-11-30T00:44:50Z</time>
      </trkpt>
      <trkpt lat="47.56718" lon="-1.53472">
        <ele>39</ele>
        <time>2022-11-30T00:46:54Z</time>
      </trkpt>
      <trkpt lat="47.56677" lon="-1.53348">
        <ele>40</ele>
        <time>2022-11-30T00:48:59Z</time>
      </trkpt>
      <trkpt lat="47.56625" lon="-1.53202">
        <ele>38</ele>
        <time>2022-11-30T00:51:27Z</time>
      </trkpt>
      <trkpt lat="47.56613" lon="-1.53181">
        <ele>38</ele>
        <time>2022-11-30T00:51:52Z</time>
      </trkpt>
      <trkpt lat="47.56597" lon="-1.53167">
        <ele>39</ele>
        <time>2022-11-30T00:52:17Z</time>
      </trkpt>
      <trkpt lat="47.56561" lon="-1.53161">
        <ele>39</ele>
        <time>2022-11-30T00:53:05Z</time>
      </trkpt>
      <trkpt lat="47.56543" lon="-1.53153">
        <ele>39</ele>
        <time>2022-11-30T00:53:30Z</time>
      </trkpt>
      <trkpt lat="47.56532" lon="-1.53175">
        <ele>39</ele>
        <time>2022-11-30T00:53:55Z</time>
      </trkpt>
      <trkpt lat="47.56535" lon="-1.53202">
        <ele>39</ele>
        <time>2022-11-30T00:54:20Z</time>
      </trkpt>
      <trkpt lat="47.56536" lon="-1.53257">
        <ele>40</ele>
        <time>2022-11-30T00:55:09Z</time>
      </trkpt>
      <trkpt lat="47.56533" lon="-1.53284">
        <ele>41</ele>
        <time>2022-11-30T00:55:34Z</time>
      </trkpt>
      <trkpt lat="47.56512" lon="-1.5339">
        <ele>41</ele>
        <time>2022-11-30T00:57:13Z</time>
      </trkpt>
      <trkpt lat="47.56499" lon="-1.5347">
        <ele>42</ele>
        <time>2022-11-30T00:58:27Z</time>
      </trkpt>
      <trkpt lat="47.56458" lon="-1.53652">
        <ele>46</ele>
        <time>2022-11-30T01:01:20Z</time>
      </trkpt>
      <trkpt lat="47.56448" lon="-1.53675">
        <ele>47</ele>
        <time>2022-11-30T01:01:45Z</time>
      </trkpt>
      <trkpt lat="47.56433" lon="-1.53689">
        <ele>48</ele>
        <time>2022-11-30T01:02:08Z</time>
      </trkpt>
      <trkpt lat="47.56414" lon="-1.53684">
        <ele>48</ele>
        <time>2022-11-30T01:02:34Z</time>
      </trkpt>
      <trkpt lat="47.56361" lon="-1.53659">
        <ele>48</ele>
        <time>2022-11-30T01:03:48Z</time>
      </trkpt>
      <trkpt lat="47.5635" lon="-1.53637">
        <ele>48</ele>
        <time>2022-11-30T01:04:13Z</time>
      </trkpt>
      <trkpt lat="47.56334" lon="-1.53624">
        <ele>47</ele>
        <time>2022-11-30T01:04:37Z</time>
      </trkpt>
      <trkpt lat="47.56315" lon="-1.53626">
        <ele>48</ele>
        <time>2022-11-30T01:05:03Z</time>
      </trkpt>
      <trkpt lat="47.56298" lon="-1.53616">
        <ele>49</ele>
        <time>2022-11-30T01:05:27Z</time>
      </trkpt>
      <trkpt lat="47.5628" lon="-1.53611">
        <ele>49</ele>
        <time>2022-11-30T01:05:52Z</time>
      </trkpt>
      <trkpt lat="47.56263" lon="-1.536">
        <ele>49</ele>
        <time>2022-11-30T01:06:16Z</time>
      </trkpt>
      <trkpt lat="47.56248" lon="-1.53584">
        <ele>48</ele>
        <time>2022-11-30T01:06:41Z</time>
      </trkpt>
      <trkpt lat="47.5623" lon="-1.53577">
        <ele>48</ele>
        <time>2022-11-30T01:07:06Z</time>
      </trkpt>
      <trkpt lat="47.56192" lon="-1.53569">
        <ele>48</ele>
        <time>2022-11-30T01:07:57Z</time>
      </trkpt>
      <trkpt lat="47.56178" lon="-1.53587">
        <ele>48</ele>
        <time>2022-11-30T01:08:22Z</time>
      </trkpt>
      <trkpt lat="47.56161" lon="-1.53597">
        <ele>49</ele>
        <time>2022-11-30T01:08:46Z</time>
      </trkpt>
      <trkpt lat="47.56143" lon="-1.53604">
        <ele>50</ele>
        <time>2022-11-30T01:09:11Z</time>
      </trkpt>
      <trkpt lat="47.56127" lon="-1.53615">
        <ele>50</ele>
        <time>2022-11-30T01:09:35Z</time>
      </trkpt>
      <trkpt lat="47.56092" lon="-1.53632">
        <ele>51</ele>
        <time>2022-11-30T01:10:24Z</time>
      </trkpt>
      <trkpt lat="47.56074" lon="-1.53637">
        <ele>51</ele>
        <time>2022-11-30T01:10:48Z</time>
      </trkpt>
      <trkpt lat="47.56057" lon="-1.53629">
        <ele>51</ele>
        <time>2022-11-30T01:11:12Z</time>
      </trkpt>
      <trkpt lat="47.56041" lon="-1.53641">
        <ele>52</ele>
        <time>2022-11-30T01:11:36Z</time>
      </trkpt>
      <trkpt lat="47.55987" lon="-1.53662">
        <ele>53</ele>
        <time>2022-11-30T01:12:50Z</time>
      </trkpt>
      <trkpt lat="47.55955" lon="-1.53688">
        <ele>54</ele>
        <time>2022-11-30T01:13:39Z</time>
      </trkpt>
      <trkpt lat="47.55947" lon="-1.53712">
        <ele>55</ele>
        <time>2022-11-30T01:14:03Z</time>
      </trkpt>
      <trkpt lat="47.55951" lon="-1.53739">
        <ele>55</ele>
        <time>2022-11-30T01:14:28Z</time>
      </trkpt>
      <trkpt lat="47.55961" lon="-1.53762">
        <ele>55</ele>
        <time>2022-11-30T01:14:53Z</time>
      </trkpt>
      <trkpt lat="47.55953" lon="-1.53815">
        <ele>56</ele>
        <time>2022-11-30T01:15:42Z</time>
      </trkpt>
      <trkpt lat="47.55958" lon="-1.53842">
        <ele>56</ele>
        <time>2022-11-30T01:16:07Z</time>
      </trkpt>
      <trkpt lat="47.55952" lon="-1.53868">
        <ele>57</ele>
        <time>2022-11-30T01:16:32Z</time>
      </trkpt>
      <trkpt lat="47.5595" lon="-1.53977">
        <ele>58</ele>
        <time>2022-11-30T01:18:10Z</time>
      </trkpt>
      <trkpt lat="47.55944" lon="-1.54031">
        <ele>58</ele>
        <time>2022-11-30T01:18:59Z</time>
      </trkpt>
      <trkpt lat="47.55949" lon="-1.54086">
        <ele>57</ele>
        <time>2022-11-30T01:19:49Z</time>
      </trkpt>
      <trkpt lat="47.55949" lon="-1.54113">
        <ele>57</ele>
        <time>2022-11-30T01:20:13Z</time>
      </trkpt>
      <trkpt lat="47.55942" lon="-1.54139">
        <ele>57</ele>
        <time>2022-11-30T01:20:39Z</time>
      </trkpt>
      <trkpt lat="47.55943" lon="-1.54166">
        <ele>57</ele>
        <time>2022-11-30T01:21:03Z</time>
      </trkpt>
      <trkpt lat="47.5594" lon="-1.54193">
        <ele>59</ele>
        <time>2022-11-30T01:21:28Z</time>
      </trkpt>
      <trkpt lat="47.55929" lon="-1.54215">
        <ele>59</ele>
        <time>2022-11-30T01:21:52Z</time>
      </trkpt>
      <trkpt lat="47.55912" lon="-1.54204">
        <ele>57</ele>
        <time>2022-11-30T01:22:17Z</time>
      </trkpt>
      <trkpt lat="47.55901" lon="-1.54182">
        <ele>57</ele>
        <time>2022-11-30T01:22:42Z</time>
      </trkpt>
      <trkpt lat="47.55864" lon="-1.54183">
        <ele>57</ele>
        <time>2022-11-30T01:23:31Z</time>
      </trkpt>
      <trkpt lat="47.55846" lon="-1.54174">
        <ele>57</ele>
        <time>2022-11-30T01:23:56Z</time>
      </trkpt>
      <trkpt lat="47.55809" lon="-1.5417">
        <ele>58</ele>
        <time>2022-11-30T01:24:46Z</time>
      </trkpt>
      <trkpt lat="47.55805" lon="-1.54115">
        <ele>60</ele>
        <time>2022-11-30T01:25:36Z</time>
      </trkpt>
      <trkpt lat="47.55794" lon="-1.54094">
        <ele>61</ele>
        <time>2022-11-30T01:26:00Z</time>
      </trkpt>
      <trkpt lat="47.55777" lon="-1.54044">
        <ele>62</ele>
        <time>2022-11-30T01:26:50Z</time>
      </trkpt>
      <trkpt lat="47.55777" lon="-1.54016">
        <ele>63</ele>
        <time>2022-11-30T01:27:15Z</time>
      </trkpt>
      <trkpt lat="47.55773" lon="-1.53988">
        <ele>63</ele>
        <time>2022-11-30T01:27:41Z</time>
      </trkpt>
      <trkpt lat="47.55759" lon="-1.53972">
        <ele>63</ele>
        <time>2022-11-30T01:28:05Z</time>
      </trkpt>
      <trkpt lat="47.55749" lon="-1.53949">
        <ele>62</ele>
        <time>2022-11-30T01:28:29Z</time>
      </trkpt>
      <trkpt lat="47.55749" lon="-1.53895">
        <ele>61</ele>
        <time>2022-11-30T01:29:18Z</time>
      </trkpt>
      <trkpt lat="47.55753" lon="-1.53868">
        <ele>61</ele>
        <time>2022-11-30T01:29:43Z</time>
      </trkpt>
      <trkpt lat="47.55766" lon="-1.53849">
        <ele>60</ele>
        <time>2022-11-30T01:30:07Z</time>
      </trkpt>
      <trkpt lat="47.55768" lon="-1.53821">
        <ele>60</ele>
        <time>2022-11-30T01:30:33Z</time>
      </trkpt>
      <trkpt lat="47.55773" lon="-1.53794">
        <ele>61</ele>
        <time>2022-11-30T01:30:58Z</time>
      </trkpt>
      <trkpt lat="47.55772" lon="-1.53739">
        <ele>62</ele>
        <time>2022-11-30T01:31:47Z</time>
      </trkpt>
      <trkpt lat="47.55752" lon="-1.53739">
        <ele>63</ele>
        <time>2022-11-30T01:32:14Z</time>
      </trkpt>
      <trkpt lat="47.55735" lon="-1.5373">
        <ele>63</ele>
        <time>2022-11-30T01:32:38Z</time>
      </trkpt>
      <trkpt lat="47.55717" lon="-1.53735">
        <ele>63</ele>
        <time>2022-11-30T01:33:02Z</time>
      </trkpt>
      <trkpt lat="47.55703" lon="-1.53716">
        <ele>62</ele>
        <time>2022-11-30T01:33:28Z</time>
      </trkpt>
      <trkpt lat="47.55692" lon="-1.53694">
        <ele>62</ele>
        <time>2022-11-30T01:33:52Z</time>
      </trkpt>
      <trkpt lat="47.55658" lon="-1.53674">
        <ele>62</ele>
        <time>2022-11-30T01:34:41Z</time>
      </trkpt>
      <trkpt lat="47.55627" lon="-1.53639">
        <ele>61</ele>
        <time>2022-11-30T01:35:33Z</time>
      </trkpt>
      <trkpt lat="47.55614" lon="-1.5362">
        <ele>61</ele>
        <time>2022-11-30T01:35:58Z</time>
      </trkpt>
      <trkpt lat="47.55585" lon="-1.53586">
        <ele>61</ele>
        <time>2022-11-30T01:36:47Z</time>
      </trkpt>
      <trkpt lat="47.55573" lon="-1.53565">
        <ele>61</ele>
        <time>2022-11-30T01:37:12Z</time>
      </trkpt>
      <trkpt lat="47.55562" lon="-1.53481">
        <ele>63</ele>
        <time>2022-11-30T01:38:29Z</time>
      </trkpt>
      <trkpt lat="47.55547" lon="-1.53464">
        <ele>63</ele>
        <time>2022-11-30T01:38:54Z</time>
      </trkpt>
      <trkpt lat="47.55543" lon="-1.53436">
        <ele>63</ele>
        <time>2022-11-30T01:39:20Z</time>
      </trkpt>
      <trkpt lat="47.5553" lon="-1.53416">
        <ele>64</ele>
        <time>2022-11-30T01:39:45Z</time>
      </trkpt>
      <trkpt lat="47.55519" lon="-1.53393">
        <ele>64</ele>
        <time>2022-11-30T01:40:10Z</time>
      </trkpt>
      <trkpt lat="47.55518" lon="-1.53339">
        <ele>64</ele>
        <time>2022-11-30T01:40:59Z</time>
      </trkpt>
      <trkpt lat="47.55503" lon="-1.53326">
        <ele>64</ele>
        <time>2022-11-30T01:41:22Z</time>
      </trkpt>
      <trkpt lat="47.55484" lon="-1.53332">
        <ele>64</ele>
        <time>2022-11-30T01:41:48Z</time>
      </trkpt>
      <trkpt lat="47.55467" lon="-1.53342">
        <ele>65</ele>
        <time>2022-11-30T01:42:12Z</time>
      </trkpt>
      <trkpt lat="47.55431" lon="-1.53279">
        <ele>66</ele>
        <time>2022-11-30T01:43:27Z</time>
      </trkpt>
      <trkpt lat="47.55403" lon="-1.53245">
        <ele>68</ele>
        <time>2022-11-30T01:44:15Z</time>
      </trkpt>
    </trkseg>
  </trk>
</gpx>